Saint Anthony, Minnesota
Current Conditions -  °F | °C
As of 8:08 AM on Wednesday 26 Nov 2014 (Local Time) from KMIC Reporting Station
Light Snow Light Snow  
Wind Chill: 18°   Ceiling: 2600
Heat Index: 24°   Visibility: 1mi
Dew Point: 18°   Wind: 5mph
Humidity: 77%   Direction: 40°NE
Pressure: 30.12"   Gusts: NA
Location:  45.0516°N, 93.2549°W
Report Text: KMIC 261408Z 04004KT 1SM -SN OVC026 M04/M08 A3012 RMK AO2 P0000 T10441078
Loading
Personal Weather Stations






























Interactive Weather Map New forecast layout! Learn more

10-Day Weather Forecast

Advertisements
Track Severe Weather on mobile